Time;durP1;ratioP1;P1;durP2;ratioP2;P2;SDS_P1;SDS_P2;PMS_P1;PMS_P2;Temp;Humidity;BMP_temperature;BMP_pressure;BME280_temperature;BME280_humidity;BME280_pressure;Samples;Min_cycle;Max_cycle;Signal;HPM_P1;HPM_P2
2023/05/02 00:00:12;;;;;;;29.23;20.67;;;;;;;9.83;100.00;101281.53;5032955;28;20637;-51
2023/05/02 00:02:38;;;;;;;27.48;20.20;;;;;;;9.93;100.00;101283.94;5027153;28;20173;-50
2023/05/02 00:05:05;;;;;;;25.60;19.33;;;;;;;9.94;100.00;101280.38;5033283;28;20185;-47
2023/05/02 00:07:31;;;;;;;29.20;19.67;;;;;;;9.81;100.00;101287.84;5036403;28;20181;-49
2023/05/02 00:09:57;;;;;;;24.45;17.88;;;;;;;9.87;100.00;101283.22;5025945;28;20271;-48
2023/05/02 00:12:22;;;;;;;24.85;18.75;;;;;;;9.99;100.00;101278.44;5029232;28;20756;-50
2023/05/02 00:14:48;;;;;;;27.48;19.92;;;;;;;9.95;100.00;101288.38;5037707;28;20194;-48
2023/05/02 00:17:18;;;;;;;30.52;19.67;;;;;;;9.94;100.00;101291.06;5037163;28;20651;-48
2023/05/02 00:19:44;;;;;;;27.08;18.77;;;;;;;9.93;100.00;101290.22;5028950;28;20234;-47
2023/05/02 00:22:09;;;;;;;30.27;19.45;;;;;;;9.95;100.00;101292.81;5032141;28;20196;-46
2023/05/02 00:24:35;;;;;;;27.73;18.15;;;;;;;10.02;100.00;101299.78;5030890;28;20211;-47
2023/05/02 00:27:01;;;;;;;24.27;18.38;;;;;;;10.03;100.00;101289.00;5033227;28;20622;-47
2023/05/02 00:29:26;;;;;;;29.17;19.40;;;;;;;9.99;100.00;101290.03;5025301;28;20259;-48
2023/05/02 00:31:52;;;;;;;29.88;19.17;;;;;;;9.98;100.00;101304.31;5030282;28;20538;-47
2023/05/02 00:34:17;;;;;;;33.40;20.23;;;;;;;9.88;100.00;101295.69;5037664;28;20198;-49
2023/05/02 00:36:43;;;;;;;27.92;18.95;;;;;;;9.89;100.00;101305.47;5027146;28;20239;-47
2023/05/02 00:39:08;;;;;;;28.45;18.95;;;;;;;9.90;100.00;101303.66;5026777;28;20570;-47
2023/05/02 00:41:34;;;;;;;29.73;20.25;;;;;;;9.87;100.00;101306.44;5034296;28;20199;-48
2023/05/02 00:44:00;;;;;;;29.23;20.20;;;;;;;9.76;100.00;101312.06;5037259;28;20218;-50
2023/05/02 00:46:25;;;;;;;30.65;20.15;;;;;;;9.91;100.00;101305.44;5040357;28;20180;-47
2023/05/02 00:48:52;;;;;;;34.88;20.17;;;;;;;9.86;100.00;101305.56;5028377;28;20559;-52
2023/05/02 00:51:18;;;;;;;29.17;17.90;;;;;;;9.95;100.00;101311.56;5022920;28;20208;-48
2023/05/02 00:53:44;;;;;;;31.67;19.30;;;;;;;9.95;100.00;101307.09;5037198;28;20179;-48
2023/05/02 00:56:10;;;;;;;29.45;18.05;;;;;;;9.88;100.00;101317.09;5029636;28;20786;-48
2023/05/02 00:58:39;;;;;;;25.80;16.70;;;;;;;9.85;100.00;101310.94;5026786;28;20231;-48
2023/05/02 01:01:34;;;;;;;19.67;15.43;;;;;;;9.93;100.00;101319.66;5035632;28;20226;-49
2023/05/02 01:04:25;;;;;;;27.77;15.75;;;;;;;9.95;100.00;101322.25;5029962;28;20207;-47
2023/05/02 01:07:13;;;;;;;24.77;16.13;;;;;;;9.97;100.00;101321.31;5027099;28;20191;-48
2023/05/02 01:09:56;;;;;;;20.85;14.50;;;;;;;9.85;100.00;101319.84;5027075;28;20599;-52
2023/05/02 01:12:40;;;;;;;21.15;14.30;;;;;;;9.81;100.00;101331.56;5032056;28;20239;-49
2023/05/02 01:15:11;;;;;;;9.32;7.78;;;;;;;9.62;100.00;101333.84;5030599;28;20177;-48
2023/05/02 01:17:38;;;;;;;6.47;4.22;;;;;;;9.33;100.00;101345.28;5028188;28;20455;-48
2023/05/02 01:20:08;;;;;;;5.40;4.90;;;;;;;9.34;100.00;101351.53;5041837;28;20179;-47
2023/05/02 01:22:39;;;;;;;7.68;5.35;;;;;;;9.13;100.00;101352.91;5028592;28;20200;-48
2023/05/02 01:25:24;;;;;;;6.05;4.82;;;;;;;8.89;100.00;101355.25;5028477;28;20215;-51
2023/05/02 01:28:14;;;;;;;7.95;4.88;;;;;;;8.91;100.00;101363.22;5022275;28;20167;-48
2023/05/02 01:30:43;;;;;;;6.57;4.53;;;;;;;8.73;100.00;101368.06;5033338;28;20220;-49
2023/05/02 01:33:15;;;;;;;7.28;4.65;;;;;;;8.53;100.00;101367.63;5032552;28;20535;-47
2023/05/02 01:35:43;;;;;;;6.78;3.92;;;;;;;8.47;100.00;101373.97;5027290;28;20181;-49
2023/05/02 01:38:13;;;;;;;6.22;3.42;;;;;;;8.44;100.00;101379.38;5029322;28;20186;-48
2023/05/02 01:40:43;;;;;;;8.15;3.58;;;;;;;8.31;100.00;101388.50;5038046;28;20184;-49
2023/05/02 01:43:11;;;;;;;6.53;3.58;;;;;;;8.30;100.00;101386.75;5031149;28;20646;-48
2023/05/02 01:45:38;;;;;;;5.75;3.28;;;;;;;8.27;100.00;101394.84;5026846;28;20187;-50
2023/05/02 01:48:06;;;;;;;10.48;3.47;;;;;;;8.15;100.00;101395.94;5032226;28;20211;-49
2023/05/02 01:50:33;;;;;;;9.13;3.55;;;;;;;7.94;100.00;101413.25;5035234;28;20290;-48
2023/05/02 01:53:00;;;;;;;8.88;3.40;;;;;;;8.07;100.00;101420.09;5029767;28;20212;-48
2023/05/02 01:55:27;;;;;;;11.90;3.55;;;;;;;7.96;100.00;101424.72;5027211;28;20255;-48
2023/05/02 01:57:55;;;;;;;14.25;3.80;;;;;;;7.86;100.00;101429.38;5029142;28;20184;-48
2023/05/02 02:00:22;;;;;;;15.95;3.92;;;;;;;7.51;100.00;101444.16;5037232;28;20206;-50
2023/05/02 02:02:51;;;;;;;16.33;4.07;;;;;;;7.50;100.00;101446.84;5032199;28;20225;-50
2023/05/02 02:05:18;;;;;;;13.77;4.20;;;;;;;7.64;100.00;101442.19;5025464;28;20499;-50
2023/05/02 02:07:45;;;;;;;20.70;4.53;;;;;;;7.32;100.00;101437.34;5033373;28;20254;-48
2023/05/02 02:10:11;;;;;;;17.73;4.30;;;;;;;7.05;100.00;101447.50;5026763;28;20234;-49
2023/05/02 02:12:52;;;;;;;15.73;4.28;;;;;;;6.99;100.00;101456.44;5027849;28;20203;-48
2023/05/02 02:15:27;;;;;;;19.60;4.20;;;;;;;6.83;100.00;101454.03;5032568;28;20611;-48
2023/05/02 02:18:13;;;;;;;14.40;4.03;;;;;;;6.67;100.00;101461.31;5037955;28;20264;-49
2023/05/02 02:20:42;;;;;;;15.88;4.70;;;;;;;6.68;100.00;101473.72;5043065;28;20237;-49
2023/05/02 02:23:09;;;;;;;19.33;5.00;;;;;;;6.35;100.00;101487.38;5019918;28;20173;-51
2023/05/02 02:25:36;;;;;;;17.70;4.82;;;;;;;6.60;100.00;101482.69;5031119;28;20216;-47
2023/05/02 02:28:02;;;;;;;19.90;4.18;;;;;;;6.27;100.00;101480.38;5033671;28;20262;-49
2023/05/02 02:30:27;;;;;;;22.50;5.13;;;;;;;6.38;100.00;101486.47;5029458;28;20207;-50
2023/05/02 02:32:53;;;;;;;21.02;4.50;;;;;;;6.33;100.00;101473.22;5028117;28;20196;-48
2023/05/02 02:35:19;;;;;;;26.40;5.30;;;;;;;6.30;100.00;101483.91;5039836;28;20191;-49
2023/05/02 02:37:56;;;;;;;21.80;4.65;;;;;;;6.33;100.00;101496.28;5042749;28;20250;-48
2023/05/02 02:40:33;;;;;;;17.83;5.13;;;;;;;6.33;99.86;101504.28;5031055;28;20201;-49
2023/05/02 02:43:05;;;;;;;16.33;4.97;;;;;;;6.32;99.31;101500.75;5023818;28;20188;-48
2023/05/02 02:45:44;;;;;;;18.30;4.45;;;;;;;6.22;99.01;101503.50;5034322;28;20208;-51
2023/05/02 02:48:17;;;;;;;16.60;4.18;;;;;;;6.20;97.78;101500.84;5026999;28;20255;-49
2023/05/02 02:50:53;;;;;;;16.98;4.30;;;;;;;6.15;96.76;101513.31;5024651;28;20200;-51
2023/05/02 02:53:26;;;;;;;16.48;3.95;;;;;;;6.28;96.47;101516.75;5036316;28;20626;-51
2023/05/02 02:56:08;;;;;;;18.30;4.50;;;;;;;6.08;95.34;101512.50;5031553;28;20647;-50
2023/05/02 02:58:56;;;;;;;16.58;4.20;;;;;;;6.10;95.20;101521.34;5029284;28;20802;-51
2023/05/02 03:01:25;;;;;;;26.05;4.78;;;;;;;6.08;94.97;101517.81;5006326;28;20203;-50
2023/05/02 03:03:53;;;;;;;19.33;4.75;;;;;;;5.95;94.20;101537.44;5052019;28;20205;-52
2023/05/02 03:06:19;;;;;;;11.55;3.65;;;;;;;5.93;93.76;101539.19;5033280;28;20180;-49
2023/05/02 03:08:46;;;;;;;22.38;4.63;;;;;;;5.97;94.02;101539.19;5026858;28;20182;-47
2023/05/02 03:11:16;;;;;;;16.23;4.07;;;;;;;5.80;93.50;101553.47;5025311;28;20278;-48
2023/05/02 03:13:42;;;;;;;24.98;4.30;;;;;;;5.78;93.15;101550.81;5035940;28;20176;-50
2023/05/02 03:16:30;;;;;;;21.38;4.40;;;;;;;5.90;93.26;101550.72;5035462;28;20184;-51
2023/05/02 03:18:55;;;;;;;14.88;3.47;;;;;;;5.59;92.99;101563.31;5027451;28;20690;-50
2023/05/02 03:21:21;;;;;;;17.70;3.55;;;;;;;5.49;92.37;101553.66;5036646;28;20199;-50
2023/05/02 03:23:48;;;;;;;20.42;5.30;;;;;;;5.42;92.07;101558.09;5036891;28;20184;-53
2023/05/02 03:26:14;;;;;;;20.85;4.63;;;;;;;5.45;91.85;101562.53;5036991;28;20691;-52
2023/05/02 03:28:40;;;;;;;22.88;4.97;;;;;;;5.48;92.33;101567.81;5028112;28;20188;-52
2023/05/02 03:31:05;;;;;;;22.85;3.75;;;;;;;5.47;91.69;101582.03;5033563;28;20679;-50
2023/05/02 03:33:35;;;;;;;13.30;4.40;;;;;;;5.36;91.98;101572.31;5039424;28;20261;-51
2023/05/02 03:36:01;;;;;;;22.23;3.65;;;;;;;5.47;91.80;101568.72;5038943;28;20189;-51
2023/05/02 03:38:29;;;;;;;16.20;3.35;;;;;;;5.44;91.30;101579.34;5030556;28;20187;-48
2023/05/02 03:40:57;;;;;;;14.52;3.55;;;;;;;5.30;90.77;101582.09;5034290;28;20261;-51
2023/05/02 03:43:23;;;;;;;19.60;4.55;;;;;;;5.20;90.11;101583.88;5033416;28;20575;-50
2023/05/02 03:45:49;;;;;;;13.88;3.28;;;;;;;5.37;89.88;101576.72;5031853;28;20192;-53
2023/05/02 03:48:15;;;;;;;16.70;3.05;;;;;;;5.32;89.41;101583.84;5032342;28;20176;-52
2023/05/02 03:50:42;;;;;;;15.50;3.58;;;;;;;5.19;89.33;101578.59;5044072;28;20214;-51
2023/05/02 03:53:08;;;;;;;17.98;3.63;;;;;;;5.29;89.34;101583.88;5038212;28;20179;-51
2023/05/02 03:55:43;;;;;;;21.15;3.30;;;;;;;5.32;89.11;101593.59;5035801;28;20301;-53
2023/05/02 03:58:15;;;;;;;13.65;3.38;;;;;;;5.25;88.79;101595.41;5031821;28;20275;-51
2023/05/02 04:00:41;;;;;;;16.00;3.53;;;;;;;5.19;88.68;101590.09;5036028;28;20235;-54
2023/05/02 04:03:08;;;;;;;15.68;3.60;;;;;;;5.05;89.19;101598.13;5038417;28;20195;-52
2023/05/02 04:05:37;;;;;;;13.68;3.35;;;;;;;5.23;89.18;101599.84;5032865;28;20177;-50
2023/05/02 04:08:03;;;;;;;14.80;3.55;;;;;;;5.25;88.92;101613.13;5038336;28;20215;-50
2023/05/02 04:10:29;;;;;;;12.15;3.55;;;;;;;5.13;89.04;101608.72;5025101;28;20607;-51
2023/05/02 04:13:01;;;;;;;12.48;3.42;;;;;;;5.32;88.91;101607.75;5023805;28;20214;-50
2023/05/02 04:15:27;;;;;;;11.80;3.63;;;;;;;5.19;89.28;101605.16;5040866;28;20173;-51
2023/05/02 04:17:53;;;;;;;16.42;3.42;;;;;;;5.28;89.30;101621.06;5034783;28;20183;-50
2023/05/02 04:20:19;;;;;;;15.73;3.97;;;;;;;5.37;88.85;101613.06;5038553;28;20187;-50
2023/05/02 04:22:49;;;;;;;10.93;3.10;;;;;;;5.46;88.70;101623.63;5032776;28;20188;-49
2023/05/02 04:25:15;;;;;;;11.13;3.40;;;;;;;5.56;87.70;101619.19;5017108;28;20196;-52
2023/05/02 04:27:42;;;;;;;10.57;2.58;;;;;;;5.56;87.94;101624.50;5019567;28;20257;-51
2023/05/02 04:30:11;;;;;;;16.73;3.42;;;;;;;5.68;87.44;101626.19;5027329;28;20193;-50
2023/05/02 04:32:38;;;;;;;13.43;2.92;;;;;;;5.71;87.21;101623.53;5034271;28;20226;-50
2023/05/02 04:35:04;;;;;;;15.80;3.13;;;;;;;5.77;86.98;101628.78;5028539;28;20219;-50
2023/05/02 04:37:30;;;;;;;11.13;2.67;;;;;;;5.77;86.83;101626.13;5038043;28;20183;-50
2023/05/02 04:39:56;;;;;;;17.80;3.15;;;;;;;5.64;86.13;101633.31;5038248;28;20184;-49
2023/05/02 04:42:25;;;;;;;13.40;3.17;;;;;;;5.71;86.46;101635.06;5031358;28;20297;-53
2023/05/02 04:44:59;;;;;;;13.52;3.45;;;;;;;5.66;86.07;101642.13;5031068;28;20194;-50
2023/05/02 04:47:25;;;;;;;13.60;2.83;;;;;;;5.80;86.12;101647.41;5032032;28;20188;-49
2023/05/02 04:49:51;;;;;;;15.25;3.10;;;;;;;5.89;85.76;101650.00;5037950;28;20186;-50
2023/05/02 04:52:17;;;;;;;11.57;3.55;;;;;;;5.85;85.24;101639.41;5026977;28;20707;-51
2023/05/02 04:54:43;;;;;;;13.95;3.25;;;;;;;5.81;85.04;101642.97;5031642;28;20184;-52
2023/05/02 04:57:09;;;;;;;11.98;2.95;;;;;;;5.91;85.02;101658.00;5027866;28;20198;-50
2023/05/02 04:59:37;;;;;;;15.32;2.83;;;;;;;5.92;85.03;101655.31;5034682;28;20627;-53
2023/05/02 05:02:04;;;;;;;12.73;3.00;;;;;;;5.97;84.60;101664.19;5029503;28;20728;-51
2023/05/02 05:04:30;;;;;;;9.98;3.17;;;;;;;5.94;84.04;101665.94;5031423;28;20219;-53
2023/05/02 05:06:56;;;;;;;12.32;2.88;;;;;;;5.96;84.50;101681.03;5036818;28;20187;-50
2023/05/02 05:09:24;;;;;;;12.95;2.97;;;;;;;5.90;83.72;101669.50;5035848;28;20378;-49
2023/05/02 05:11:49;;;;;;;12.35;3.60;;;;;;;6.00;83.88;101686.34;5006553;28;20335;-50
2023/05/02 05:14:15;;;;;;;11.15;3.22;;;;;;;5.94;83.87;101682.81;5030400;28;20353;-52
2023/05/02 05:16:45;;;;;;;15.60;3.15;;;;;;;6.04;83.46;101691.63;5030427;28;20253;-48
2023/05/02 05:19:10;;;;;;;13.55;2.75;;;;;;;5.85;83.16;101684.63;5032493;28;20712;-55
2023/05/02 05:21:35;;;;;;;7.10;2.90;;;;;;;5.99;83.45;101693.41;5028423;28;20219;-52
2023/05/02 05:24:02;;;;;;;11.20;3.00;;;;;;;6.08;83.13;101695.16;5040017;28;20230;-50
2023/05/02 05:26:28;;;;;;;13.57;2.70;;;;;;;5.90;82.16;101693.44;5032200;28;20545;-50
2023/05/02 05:28:54;;;;;;;11.70;2.50;;;;;;;5.98;81.44;101687.22;5030167;28;20606;-52
2023/05/02 05:31:23;;;;;;;8.93;2.92;;;;;;;6.04;80.79;101675.69;5013941;28;20299;-51
2023/05/02 05:33:52;;;;;;;8.55;2.70;;;;;;;5.97;80.04;101677.50;5034276;28;20654;-50
2023/05/02 05:36:19;;;;;;;7.63;2.10;;;;;;;6.11;79.80;101685.38;5038270;28;20195;-50
2023/05/02 05:38:45;;;;;;;8.45;2.53;;;;;;;6.02;79.48;101685.44;5024223;28;20191;-53
2023/05/02 05:41:11;;;;;;;11.73;2.83;;;;;;;6.07;79.75;101693.41;5034931;28;20677;-50
2023/05/02 05:43:41;;;;;;;9.02;2.88;;;;;;;6.16;79.87;101703.97;5034070;28;20325;-50
2023/05/02 05:46:07;;;;;;;16.33;2.80;;;;;;;6.15;79.52;101702.22;5032457;28;20199;-52
2023/05/02 05:48:34;;;;;;;9.27;2.50;;;;;;;6.29;79.70;101691.47;5026908;28;20609;-50
2023/05/02 05:51:04;;;;;;;10.38;2.72;;;;;;;6.34;78.80;101702.97;5028988;28;20223;-52
2023/05/02 05:53:31;;;;;;;14.25;2.60;;;;;;;6.30;78.77;101698.59;5037666;28;20286;-51
2023/05/02 05:55:58;;;;;;;6.07;2.38;;;;;;;6.31;78.21;101703.00;5032296;28;20726;-51
2023/05/02 05:58:23;;;;;;;6.35;2.10;;;;;;;6.52;78.38;101694.88;5016783;28;20651;-51
2023/05/02 06:00:51;;;;;;;12.30;2.67;;;;;;;6.70;78.13;101703.63;5014116;28;20675;-49
2023/05/02 06:03:17;;;;;;;7.25;2.03;;;;;;;6.66;77.67;101707.19;5026788;28;20260;-50
2023/05/02 06:05:43;;;;;;;10.50;2.67;;;;;;;6.71;77.51;101718.69;5033303;28;20183;-52
2023/05/02 06:08:09;;;;;;;9.02;2.42;;;;;;;6.60;77.18;101719.66;5028544;28;20255;-53
2023/05/02 06:10:34;;;;;;;10.18;3.13;;;;;;;6.76;77.18;101725.75;5028546;28;20225;-52
2023/05/02 06:13:00;;;;;;;7.47;2.60;;;;;;;6.43;77.38;101733.97;5033160;28;20199;-52
2023/05/02 06:15:33;;;;;;;11.52;2.42;;;;;;;6.63;76.96;101725.88;5031430;28;20194;-51
2023/05/02 06:17:59;;;;;;;8.93;2.20;;;;;;;6.60;76.49;101732.97;5023300;28;20187;-52
2023/05/02 06:20:25;;;;;;;9.60;2.20;;;;;;;6.76;75.62;101724.88;5030020;28;20180;-52
2023/05/02 06:22:50;;;;;;;7.88;2.13;;;;;;;6.75;75.14;101718.63;5033675;28;20188;-48
2023/05/02 06:25:16;;;;;;;9.95;2.72;;;;;;;6.98;74.35;101717.56;5031266;28;20180;-50
2023/05/02 06:27:41;;;;;;;12.43;2.60;;;;;;;6.94;74.66;101734.47;5027616;28;20233;-50
2023/05/02 06:30:07;;;;;;;7.75;1.98;;;;;;;7.20;74.84;101752.91;5026641;28;20279;-51
2023/05/02 06:32:33;;;;;;;6.82;2.08;;;;;;;7.32;74.09;101738.56;5032983;28;20563;-53
2023/05/02 06:34:59;;;;;;;4.82;1.90;;;;;;;7.51;72.78;101726.81;5031066;28;20192;-51
2023/05/02 06:37:24;;;;;;;16.38;2.70;;;;;;;7.72;72.22;101728.34;5030284;28;20176;-51
2023/05/02 06:39:49;;;;;;;8.27;1.83;;;;;;;7.64;71.71;101728.44;5031678;28;20187;-52
2023/05/02 06:42:15;;;;;;;5.90;2.00;;;;;;;7.84;71.71;101736.19;5039295;28;20286;-49
2023/05/02 06:44:40;;;;;;;8.52;2.63;;;;;;;8.04;71.08;101733.25;5025479;28;20195;-50
2023/05/02 06:47:07;;;;;;;10.43;2.47;;;;;;;7.77;69.75;101717.63;5029716;28;20249;-49
2023/05/02 06:49:32;;;;;;;7.57;2.08;;;;;;;7.82;69.41;101724.66;5030060;28;20643;-54
2023/05/02 06:51:58;;;;;;;13.65;2.75;;;;;;;8.01;69.10;101730.66;5035881;28;20264;-53
2023/05/02 06:54:23;;;;;;;8.68;2.47;;;;;;;7.87;68.60;101737.06;5034824;28;20293;-50
2023/05/02 06:56:49;;;;;;;10.73;2.05;;;;;;;7.91;68.62;101741.44;5030526;28;20185;-49
2023/05/02 06:59:17;;;;;;;10.13;2.30;;;;;;;7.75;68.03;101748.75;5038994;28;20210;-49
2023/05/02 07:01:43;;;;;;;10.00;2.10;;;;;;;7.83;67.39;101738.91;5039346;28;20354;-51
2023/05/02 07:04:09;;;;;;;10.77;2.13;;;;;;;7.84;67.14;101736.19;5028625;28;20270;-51
2023/05/02 07:06:34;;;;;;;10.63;2.47;;;;;;;7.85;67.54;101745.09;5035382;28;20400;-54
2023/05/02 07:09:00;;;;;;;8.25;1.88;;;;;;;7.71;67.37;101752.38;5040598;28;20179;-52
2023/05/02 07:11:26;;;;;;;8.18;2.50;;;;;;;7.75;66.81;101744.31;5040951;28;20210;-49
2023/05/02 07:13:52;;;;;;;6.97;1.90;;;;;;;7.59;66.89;101756.06;5035101;28;20180;-52
2023/05/02 07:16:18;;;;;;;8.48;2.20;;;;;;;7.74;66.80;101755.91;5027708;28;20183;-50
2023/05/02 07:18:44;;;;;;;9.60;2.13;;;;;;;8.54;66.72;101768.22;5039533;28;20307;-50
2023/05/02 07:21:10;;;;;;;11.25;2.25;;;;;;;9.27;65.38;101754.53;5036205;28;20200;-51
2023/05/02 07:23:36;;;;;;;6.90;2.20;;;;;;;9.03;63.88;101732.69;5030659;28;20175;-50
2023/05/02 07:26:02;;;;;;;7.32;2.00;;;;;;;9.59;63.56;101743.25;5045847;28;20202;-52
2023/05/02 07:28:27;;;;;;;10.68;2.80;;;;;;;10.20;62.32;101741.09;5042795;28;20670;-47
2023/05/02 07:30:53;;;;;;;5.82;1.77;;;;;;;10.64;60.75;101728.50;5031571;28;20249;-47
2023/05/02 07:33:18;;;;;;;7.57;2.10;;;;;;;10.40;61.39;101732.63;5030394;28;20188;-50
2023/05/02 07:35:44;;;;;;;9.52;2.08;;;;;;;10.60;60.41;101732.16;5032585;28;20654;-49
2023/05/02 07:38:09;;;;;;;7.80;1.88;;;;;;;10.84;59.31;101722.66;5041218;28;20256;-52
2023/05/02 07:40:35;;;;;;;8.40;2.13;;;;;;;9.61;59.74;101714.66;5038626;28;20192;-50
2023/05/02 07:43:01;;;;;;;8.52;1.80;;;;;;;10.63;60.11;101744.63;5030255;28;20228;-47
2023/05/02 07:45:26;;;;;;;9.80;3.95;;;;;;;11.31;59.27;101744.69;5038577;28;20222;-49
2023/05/02 07:47:52;;;;;;;6.60;2.05;;;;;;;10.92;59.12;101750.16;5041657;28;20638;-49
2023/05/02 07:50:17;;;;;;;8.20;1.85;;;;;;;10.11;59.32;101735.94;5030701;28;20690;-49
2023/05/02 07:52:43;;;;;;;6.70;1.90;;;;;;;10.79;60.59;101770.16;5037617;28;20713;-50
2023/05/02 07:55:08;;;;;;;7.03;2.30;;;;;;;10.78;59.43;101752.31;5039483;28;20182;-50
2023/05/02 07:57:34;;;;;;;9.98;2.40;;;;;;;11.26;58.37;101745.72;5041091;28;20182;-51
2023/05/02 07:59:59;;;;;;;6.95;2.22;;;;;;;11.32;57.00;101724.97;5037347;28;20215;-48
2023/05/02 08:02:26;;;;;;;4.75;1.60;;;;;;;12.06;56.25;101725.59;5030484;28;20188;-50
2023/05/02 08:04:51;;;;;;;5.15;1.98;;;;;;;11.55;56.35;101729.72;5024608;28;20176;-51
2023/05/02 08:07:17;;;;;;;6.93;2.13;;;;;;;10.43;57.50;101729.91;5038422;28;20184;-48
2023/05/02 08:09:42;;;;;;;11.18;2.17;;;;;;;10.48;58.49;101749.44;5040685;28;20275;-50
2023/05/02 08:12:08;;;;;;;5.05;2.10;;;;;;;10.82;58.17;101764.72;5024894;28;20204;-47
2023/05/02 08:14:33;;;;;;;6.75;1.85;;;;;;;10.57;58.00;101756.38;5036707;28;20270;-50
2023/05/02 08:16:59;;;;;;;5.78;2.10;;;;;;;10.46;57.93;101764.66;5039217;28;20283;-48
2023/05/02 08:19:25;;;;;;;6.55;1.60;;;;;;;10.02;58.20;101773.63;5028738;28;20180;-48
2023/05/02 08:21:53;;;;;;;7.07;2.17;;;;;;;9.96;59.77;101795.16;5031433;28;20587;-50
2023/05/02 08:24:18;;;;;;;6.80;2.10;;;;;;;9.45;58.99;101778.28;5036207;28;20183;-49
2023/05/02 08:26:44;;;;;;;6.65;2.33;;;;;;;9.81;59.89;101801.69;5039514;28;20175;-51
2023/05/02 08:29:10;;;;;;;9.57;2.13;;;;;;;9.88;59.58;101800.66;5032084;28;20215;-48
2023/05/02 08:31:36;;;;;;;6.63;2.15;;;;;;;10.09;59.12;101794.00;5026274;28;20231;-50
2023/05/02 08:34:02;;;;;;;6.22;1.70;;;;;;;10.00;58.98;101783.50;5035348;28;20195;-49
2023/05/02 08:36:28;;;;;;;7.13;2.63;;;;;;;10.61;58.68;101811.66;5028753;28;20188;-48
2023/05/02 08:38:53;;;;;;;7.90;2.17;;;;;;;10.41;58.80;101801.41;5027673;28;20314;-49
2023/05/02 08:41:19;;;;;;;6.80;1.85;;;;;;;10.54;58.75;101814.50;5035550;28;20342;-49
2023/05/02 08:43:45;;;;;;;7.70;2.13;;;;;;;10.76;57.77;101806.84;5042606;28;20199;-49
2023/05/02 08:46:13;;;;;;;7.57;2.15;;;;;;;11.52;58.34;101825.53;5046320;28;20202;-47
2023/05/02 08:48:41;;;;;;;7.57;1.83;;;;;;;11.63;57.73;101809.16;5030082;28;20271;-48
2023/05/02 08:51:15;;;;;;;9.68;1.90;;;;;;;10.05;57.41;101790.50;5027458;28;20589;-50
2023/05/02 08:53:41;;;;;;;5.38;1.75;;;;;;;10.36;59.02;101831.88;5032920;28;20190;-48
2023/05/02 08:56:10;;;;;;;8.98;2.00;;;;;;;11.17;58.06;101838.03;5027013;28;20280;-47
2023/05/02 08:58:37;;;;;;;7.35;2.08;;;;;;;11.86;56.82;101828.19;5033132;28;20176;-49
2023/05/02 09:01:08;;;;;;;10.43;2.05;;;;;;;11.85;55.46;101815.72;5041705;28;20581;-47
2023/05/02 09:03:35;;;;;;;8.02;2.30;;;;;;;11.23;56.50;101818.25;5033722;28;20198;-47
2023/05/02 09:06:09;;;;;;;6.90;2.20;;;;;;;10.94;56.24;101803.75;5028533;28;20237;-48
2023/05/02 09:08:36;;;;;;;7.18;1.80;;;;;;;10.95;55.93;101801.94;5028619;28;20467;-48
2023/05/02 09:11:03;;;;;;;10.18;1.90;;;;;;;10.94;56.27;101814.47;5033591;28;20227;-48
2023/05/02 09:13:42;;;;;;;8.43;2.30;;;;;;;11.16;56.85;101828.25;5034189;28;20180;-49
2023/05/02 09:16:09;;;;;;;7.10;2.40;;;;;;;10.63;57.61;101838.44;5021342;28;20544;-48
2023/05/02 09:18:40;;;;;;;8.70;2.28;;;;;;;10.78;58.14;101861.31;5031503;28;20210;-48
2023/05/02 09:21:11;;;;;;;5.57;2.00;;;;;;;10.13;57.34;101835.00;5035756;28;20650;-48
2023/05/02 09:23:59;;;;;;;9.52;2.05;;;;;;;10.74;57.71;101855.16;5025668;28;20183;-48
2023/05/02 09:26:32;;;;;;;5.75;1.70;;;;;;;10.68;57.17;101856.16;5031309;28;20183;-50
2023/05/02 09:29:00;;;;;;;8.93;2.30;;;;;;;11.22;56.60;101851.38;5023444;28;20213;-48
2023/05/02 09:31:33;;;;;;;12.45;2.20;;;;;;;10.81;57.25;101866.63;5026015;28;20757;-46
2023/05/02 09:34:18;;;;;;;4.93;1.92;;;;;;;10.96;56.82;101868.94;5027710;28;20172;-50
2023/05/02 09:36:55;;;;;;;6.95;1.88;;;;;;;11.34;56.50;101861.78;5030941;28;20203;-49
2023/05/02 09:39:28;;;;;;;9.52;2.30;;;;;;;11.51;55.00;101848.81;5031331;28;20198;-50
2023/05/02 09:41:54;;;;;;;8.23;2.15;;;;;;;11.52;55.36;101847.91;5034318;28;20212;-47
2023/05/02 09:44:22;;;;;;;10.95;2.35;;;;;;;10.81;55.16;101832.66;5032578;28;20211;-46
2023/05/02 09:46:50;;;;;;;8.65;2.40;;;;;;;10.72;54.63;101832.88;5036020;28;20242;-45
2023/05/02 09:49:19;;;;;;;4.50;1.80;;;;;;;11.91;53.67;101839.72;5033208;28;20235;-47
2023/05/02 09:51:46;;;;;;;7.88;1.83;;;;;;;11.86;53.12;101816.59;5024914;28;20290;-50
2023/05/02 09:54:13;;;;;;;10.55;2.22;;;;;;;11.23;54.20;101823.59;5034756;28;20697;-47
2023/05/02 09:56:55;;;;;;;7.47;2.00;;;;;;;10.80;55.90;101844.31;5032300;28;20180;-47
2023/05/02 09:59:21;;;;;;;12.60;2.40;;;;;;;11.16;56.02;101862.25;5032935;28;20557;-48
2023/05/02 10:01:58;;;;;;;6.55;1.85;;;;;;;12.09;55.12;101869.69;5034413;28;20187;-47
2023/05/02 10:04:25;;;;;;;7.25;2.10;;;;;;;11.29;55.15;101869.06;5029475;28;20194;-49
2023/05/02 10:06:52;;;;;;;8.88;2.17;;;;;;;11.28;55.79;101870.88;5029282;28;20187;-46
2023/05/02 10:09:20;;;;;;;8.60;2.10;;;;;;;10.88;56.16;101887.00;5032728;28;20263;-50
2023/05/02 10:11:48;;;;;;;8.25;2.10;;;;;;;10.67;56.69;101891.03;5030119;28;20224;-51
2023/05/02 10:14:15;;;;;;;8.18;2.05;;;;;;;10.42;56.73;101896.03;5033486;28;20176;-49
2023/05/02 10:16:50;;;;;;;6.45;2.03;;;;;;;11.50;56.58;101911.47;5034160;28;20556;-45
2023/05/02 10:19:23;;;;;;;7.93;2.22;;;;;;;11.74;54.71;101896.56;5037628;28;20183;-49
2023/05/02 10:21:49;;;;;;;8.23;1.95;;;;;;;11.93;53.93;101883.53;5025500;28;20220;-48
2023/05/02 10:24:16;;;;;;;8.32;2.20;;;;;;;11.53;53.40;101873.81;5028296;28;20183;-47
2023/05/02 10:26:42;;;;;;;6.07;2.20;;;;;;;11.50;53.19;101875.69;5021954;28;20648;-47
2023/05/02 10:29:10;;;;;;;9.18;2.40;;;;;;;12.04;53.64;101879.69;5028428;28;20247;-52
2023/05/02 10:31:38;;;;;;;8.50;2.50;;;;;;;12.50;53.51;101878.38;5023981;28;20211;-48
2023/05/02 10:34:06;;;;;;;5.63;1.90;;;;;;;12.80;52.31;101864.94;5044158;28;20175;-49
2023/05/02 10:36:32;;;;;;;10.27;2.47;;;;;;;13.18;51.55;101861.91;5028391;28;20184;-47
2023/05/02 10:38:58;;;;;;;5.47;2.33;;;;;;;13.20;51.46;101861.84;5025923;28;20187;-48
2023/05/02 10:41:26;;;;;;;4.15;2.00;;;;;;;13.93;49.87;101847.72;5023300;28;20200;-48
2023/05/02 10:43:52;;;;;;;9.77;3.20;;;;;;;12.90;51.03;101861.91;5023356;28;20202;-48
2023/05/02 10:46:42;;;;;;;7.60;2.20;;;;;;;11.87;52.14;101872.94;5033513;28;20184;-47
2023/05/02 10:49:12;;;;;;;9.07;1.98;;;;;;;11.93;53.24;101905.00;5024039;28;20180;-50
2023/05/02 10:51:40;;;;;;;3.53;1.90;;;;;;;11.76;53.20;101907.22;5026313;28;20211;-47
2023/05/02 10:54:24;;;;;;;6.43;2.00;;;;;;;11.17;54.71;101913.16;5038121;28;20202;-51
2023/05/02 10:56:58;;;;;;;4.95;2.05;;;;;;;11.02;55.55;101924.22;5030419;28;20183;-54
2023/05/02 10:59:37;;;;;;;5.65;2.20;;;;;;;11.29;54.80;101934.34;5028090;28;20182;-48
2023/05/02 11:02:26;;;;;;;4.88;1.83;;;;;;;11.02;54.48;101933.19;5022130;28;20219;-47
2023/05/02 11:05:03;;;;;;;5.40;2.17;;;;;;;12.00;53.86;101923.66;5031545;28;20187;-50
2023/05/02 11:07:30;;;;;;;6.30;1.98;;;;;;;11.85;53.34;101917.75;5031524;28;20277;-47
2023/05/02 11:10:17;;;;;;;10.48;2.25;;;;;;;12.44;52.51;101914.38;5028764;28;20573;-49
2023/05/02 11:12:45;;;;;;;6.45;2.10;;;;;;;12.87;51.29;101888.03;5028471;28;20222;-47
2023/05/02 11:15:11;;;;;;;5.13;2.05;;;;;;;13.20;50.56;101880.69;5024657;28;20293;-46
2023/05/02 11:18:01;;;;;;;6.97;1.73;;;;;;;12.59;50.31;101872.72;5030137;28;20606;-50
2023/05/02 11:20:27;;;;;;;5.20;1.70;;;;;;;12.55;50.87;101869.25;5025623;28;20236;-49
2023/05/02 11:22:55;;;;;;;10.60;2.22;;;;;;;12.75;51.22;101891.97;5032222;28;20655;-47
2023/05/02 11:25:35;;;;;;;7.05;2.25;;;;;;;12.28;51.66;101887.03;5030722;28;20662;-52
2023/05/02 11:28:01;;;;;;;7.82;1.85;;;;;;;13.11;51.52;101889.94;5028663;28;20439;-46
2023/05/02 11:30:36;;;;;;;9.05;2.40;;;;;;;13.03;49.95;101872.28;5029642;28;20218;-49